sensor_id;sensor_type;location;lat;lon;timestamp;P1;durP1;ratioP1;P2;durP2;ratioP2
37453;SDS011;23315;52.078;4.756;2023-12-07T00:00:59;20.87;;;13.90;;
37453;SDS011;23315;52.078;4.756;2023-12-07T00:03:24;21.53;;;13.83;;
37453;SDS011;23315;52.078;4.756;2023-12-07T00:05:50;19.93;;;14.37;;
37453;SDS011;23315;52.078;4.756;2023-12-07T00:08:15;17.23;;;13.60;;
37453;SDS011;23315;52.078;4.756;2023-12-07T00:10:40;19.27;;;13.10;;
37453;SDS011;23315;52.078;4.756;2023-12-07T00:13:06;22.67;;;14.23;;
37453;SDS011;23315;52.078;4.756;2023-12-07T00:15:31;19.77;;;13.00;;
37453;SDS011;23315;52.078;4.756;2023-12-07T00:17:56;21.67;;;13.60;;
37453;SDS011;23315;52.078;4.756;2023-12-07T00:20:22;18.67;;;12.23;;
37453;SDS011;23315;52.078;4.756;2023-12-07T00:22:47;17.50;;;12.93;;
37453;SDS011;23315;52.078;4.756;2023-12-07T00:25:12;20.47;;;13.30;;
37453;SDS011;23315;52.078;4.756;2023-12-07T00:27:38;17.67;;;13.43;;
37453;SDS011;23315;52.078;4.756;2023-12-07T00:30:03;20.77;;;12.87;;
37453;SDS011;23315;52.078;4.756;2023-12-07T00:32:29;18.87;;;13.17;;
37453;SDS011;23315;52.078;4.756;2023-12-07T00:34:54;18.63;;;12.93;;
37453;SDS011;23315;52.078;4.756;2023-12-07T00:37:20;16.33;;;11.37;;
37453;SDS011;23315;52.078;4.756;2023-12-07T00:39:45;19.93;;;12.90;;
37453;SDS011;23315;52.078;4.756;2023-12-07T00:42:11;18.90;;;12.37;;
37453;SDS011;23315;52.078;4.756;2023-12-07T00:44:39;20.23;;;13.00;;
37453;SDS011;23315;52.078;4.756;2023-12-07T00:47:05;17.27;;;13.43;;
37453;SDS011;23315;52.078;4.756;2023-12-07T00:49:31;19.63;;;13.37;;
37453;SDS011;23315;52.078;4.756;2023-12-07T00:51:56;22.97;;;12.93;;
37453;SDS011;23315;52.078;4.756;2023-12-07T00:54:21;21.47;;;13.57;;
37453;SDS011;23315;52.078;4.756;2023-12-07T00:56:47;17.43;;;12.23;;
37453;SDS011;23315;52.078;4.756;2023-12-07T00:59:12;19.93;;;12.63;;
37453;SDS011;23315;52.078;4.756;2023-12-07T01:01:37;17.30;;;12.90;;
37453;SDS011;23315;52.078;4.756;2023-12-07T01:04:06;18.07;;;13.30;;
37453;SDS011;23315;52.078;4.756;2023-12-07T01:06:31;20.07;;;13.53;;
37453;SDS011;23315;52.078;4.756;2023-12-07T01:08:56;21.97;;;14.23;;
37453;SDS011;23315;52.078;4.756;2023-12-07T01:11:22;23.93;;;14.17;;
37453;SDS011;23315;52.078;4.756;2023-12-07T01:13:47;23.43;;;14.17;;
37453;SDS011;23315;52.078;4.756;2023-12-07T01:16:12;21.00;;;13.63;;
37453;SDS011;23315;52.078;4.756;2023-12-07T01:18:38;21.97;;;13.93;;
37453;SDS011;23315;52.078;4.756;2023-12-07T01:21:03;19.13;;;13.70;;
37453;SDS011;23315;52.078;4.756;2023-12-07T01:23:29;20.47;;;14.50;;
37453;SDS011;23315;52.078;4.756;2023-12-07T01:25:54;19.67;;;12.73;;
37453;SDS011;23315;52.078;4.756;2023-12-07T01:28:19;21.63;;;13.70;;
37453;SDS011;23315;52.078;4.756;2023-12-07T01:30:45;19.87;;;13.20;;
37453;SDS011;23315;52.078;4.756;2023-12-07T01:33:10;21.67;;;13.77;;
37453;SDS011;23315;52.078;4.756;2023-12-07T01:35:35;22.50;;;14.43;;
37453;SDS011;23315;52.078;4.756;2023-12-07T01:38:01;19.73;;;13.50;;
37453;SDS011;23315;52.078;4.756;2023-12-07T01:40:26;21.87;;;13.93;;
37453;SDS011;23315;52.078;4.756;2023-12-07T01:42:52;20.93;;;13.93;;
37453;SDS011;23315;52.078;4.756;2023-12-07T01:45:17;21.10;;;13.37;;
37453;SDS011;23315;52.078;4.756;2023-12-07T01:47:44;22.10;;;15.23;;
37453;SDS011;23315;52.078;4.756;2023-12-07T01:50:11;21.23;;;14.73;;
37453;SDS011;23315;52.078;4.756;2023-12-07T01:52:40;24.90;;;15.50;;
37453;SDS011;23315;52.078;4.756;2023-12-07T01:55:09;21.67;;;14.40;;
37453;SDS011;23315;52.078;4.756;2023-12-07T01:57:35;27.07;;;16.27;;
37453;SDS011;23315;52.078;4.756;2023-12-07T02:00:01;21.80;;;16.03;;
37453;SDS011;23315;52.078;4.756;2023-12-07T02:02:26;25.53;;;15.53;;
37453;SDS011;23315;52.078;4.756;2023-12-07T02:04:52;23.53;;;15.60;;
37453;SDS011;23315;52.078;4.756;2023-12-07T02:07:17;23.70;;;17.30;;
37453;SDS011;23315;52.078;4.756;2023-12-07T02:09:43;23.80;;;16.20;;
37453;SDS011;23315;52.078;4.756;2023-12-07T02:12:08;24.97;;;16.37;;
37453;SDS011;23315;52.078;4.756;2023-12-07T02:14:34;30.80;;;17.80;;
37453;SDS011;23315;52.078;4.756;2023-12-07T02:17:08;26.43;;;18.97;;
37453;SDS011;23315;52.078;4.756;2023-12-07T02:19:57;29.63;;;18.93;;
37453;SDS011;23315;52.078;4.756;2023-12-07T02:22:29;38.60;;;21.93;;
37453;SDS011;23315;52.078;4.756;2023-12-07T02:25:04;36.03;;;22.13;;
37453;SDS011;23315;52.078;4.756;2023-12-07T02:30:04;35.93;;;23.73;;
37453;SDS011;23315;52.078;4.756;2023-12-07T02:32:30;36.53;;;23.23;;
37453;SDS011;23315;52.078;4.756;2023-12-07T02:34:55;40.07;;;25.00;;
37453;SDS011;23315;52.078;4.756;2023-12-07T02:37:21;42.00;;;26.83;;
37453;SDS011;23315;52.078;4.756;2023-12-07T02:39:47;39.60;;;27.37;;
37453;SDS011;23315;52.078;4.756;2023-12-07T02:42:13;43.70;;;25.03;;
37453;SDS011;23315;52.078;4.756;2023-12-07T02:44:39;37.53;;;24.50;;
37453;SDS011;23315;52.078;4.756;2023-12-07T02:47:05;38.10;;;24.57;;
37453;SDS011;23315;52.078;4.756;2023-12-07T02:49:30;33.67;;;23.07;;
37453;SDS011;23315;52.078;4.756;2023-12-07T02:51:56;35.90;;;22.57;;
37453;SDS011;23315;52.078;4.756;2023-12-07T02:54:21;34.57;;;22.07;;
37453;SDS011;23315;52.078;4.756;2023-12-07T02:56:48;33.97;;;21.53;;
37453;SDS011;23315;52.078;4.756;2023-12-07T02:59:13;35.80;;;23.43;;
37453;SDS011;23315;52.078;4.756;2023-12-07T03:01:38;33.60;;;21.43;;
37453;SDS011;23315;52.078;4.756;2023-12-07T03:04:04;35.60;;;20.63;;
37453;SDS011;23315;52.078;4.756;2023-12-07T03:06:29;28.83;;;19.27;;
37453;SDS011;23315;52.078;4.756;2023-12-07T03:08:54;30.17;;;19.53;;
37453;SDS011;23315;52.078;4.756;2023-12-07T03:11:20;31.23;;;20.90;;
37453;SDS011;23315;52.078;4.756;2023-12-07T03:13:46;32.13;;;21.47;;
37453;SDS011;23315;52.078;4.756;2023-12-07T03:16:11;32.70;;;20.83;;
37453;SDS011;23315;52.078;4.756;2023-12-07T03:18:36;29.40;;;20.87;;
37453;SDS011;23315;52.078;4.756;2023-12-07T03:21:02;35.87;;;22.43;;
37453;SDS011;23315;52.078;4.756;2023-12-07T03:23:28;43.80;;;27.77;;
37453;SDS011;23315;52.078;4.756;2023-12-07T03:25:53;39.80;;;24.37;;
37453;SDS011;23315;52.078;4.756;2023-12-07T03:28:18;44.57;;;25.97;;
37453;SDS011;23315;52.078;4.756;2023-12-07T03:30:44;37.30;;;23.60;;
37453;SDS011;23315;52.078;4.756;2023-12-07T03:33:09;38.17;;;25.07;;
37453;SDS011;23315;52.078;4.756;2023-12-07T03:35:34;35.37;;;23.87;;
37453;SDS011;23315;52.078;4.756;2023-12-07T03:38:00;39.07;;;22.83;;
37453;SDS011;23315;52.078;4.756;2023-12-07T03:40:25;40.50;;;24.03;;
37453;SDS011;23315;52.078;4.756;2023-12-07T03:42:51;34.57;;;23.60;;
37453;SDS011;23315;52.078;4.756;2023-12-07T03:45:16;39.53;;;25.80;;
37453;SDS011;23315;52.078;4.756;2023-12-07T03:47:41;40.20;;;24.63;;
37453;SDS011;23315;52.078;4.756;2023-12-07T03:50:07;40.57;;;24.90;;
37453;SDS011;23315;52.078;4.756;2023-12-07T03:52:32;42.40;;;25.80;;
37453;SDS011;23315;52.078;4.756;2023-12-07T03:54:58;35.33;;;24.03;;
37453;SDS011;23315;52.078;4.756;2023-12-07T03:57:23;36.07;;;24.00;;
37453;SDS011;23315;52.078;4.756;2023-12-07T03:59:48;36.17;;;20.33;;
37453;SDS011;23315;52.078;4.756;2023-12-07T04:02:14;35.17;;;20.80;;
37453;SDS011;23315;52.078;4.756;2023-12-07T04:04:39;32.63;;;20.17;;
37453;SDS011;23315;52.078;4.756;2023-12-07T04:07:04;36.87;;;21.13;;
37453;SDS011;23315;52.078;4.756;2023-12-07T04:09:30;32.87;;;19.97;;
37453;SDS011;23315;52.078;4.756;2023-12-07T04:11:55;31.93;;;20.43;;
37453;SDS011;23315;52.078;4.756;2023-12-07T04:14:21;32.90;;;18.70;;
37453;SDS011;23315;52.078;4.756;2023-12-07T04:16:46;31.70;;;20.77;;
37453;SDS011;23315;52.078;4.756;2023-12-07T04:19:12;31.67;;;19.17;;
37453;SDS011;23315;52.078;4.756;2023-12-07T04:21:37;33.40;;;21.03;;
37453;SDS011;23315;52.078;4.756;2023-12-07T04:24:03;31.90;;;20.40;;
37453;SDS011;23315;52.078;4.756;2023-12-07T04:26:28;29.03;;;18.53;;
37453;SDS011;23315;52.078;4.756;2023-12-07T04:28:54;30.97;;;20.07;;
37453;SDS011;23315;52.078;4.756;2023-12-07T04:31:19;30.97;;;17.47;;
37453;SDS011;23315;52.078;4.756;2023-12-07T04:33:46;30.93;;;19.73;;
37453;SDS011;23315;52.078;4.756;2023-12-07T04:36:11;26.87;;;17.00;;
37453;SDS011;23315;52.078;4.756;2023-12-07T04:38:37;27.57;;;15.67;;
37453;SDS011;23315;52.078;4.756;2023-12-07T04:41:02;21.47;;;15.27;;
37453;SDS011;23315;52.078;4.756;2023-12-07T04:43:28;24.67;;;15.50;;
37453;SDS011;23315;52.078;4.756;2023-12-07T04:45:53;24.20;;;15.43;;
37453;SDS011;23315;52.078;4.756;2023-12-07T04:48:18;29.50;;;16.83;;
37453;SDS011;23315;52.078;4.756;2023-12-07T04:50:44;25.27;;;14.93;;
37453;SDS011;23315;52.078;4.756;2023-12-07T04:53:09;26.73;;;16.13;;
37453;SDS011;23315;52.078;4.756;2023-12-07T04:55:34;27.40;;;14.87;;
37453;SDS011;23315;52.078;4.756;2023-12-07T04:58:00;24.23;;;15.20;;
37453;SDS011;23315;52.078;4.756;2023-12-07T05:00:26;21.53;;;14.97;;
37453;SDS011;23315;52.078;4.756;2023-12-07T05:02:52;26.03;;;15.43;;
37453;SDS011;23315;52.078;4.756;2023-12-07T05:05:17;23.87;;;15.77;;
37453;SDS011;23315;52.078;4.756;2023-12-07T05:07:43;30.60;;;17.10;;
37453;SDS011;23315;52.078;4.756;2023-12-07T05:10:08;24.97;;;15.30;;
37453;SDS011;23315;52.078;4.756;2023-12-07T05:12:34;25.00;;;15.23;;
37453;SDS011;23315;52.078;4.756;2023-12-07T05:15:00;22.80;;;14.83;;
37453;SDS011;23315;52.078;4.756;2023-12-07T05:17:27;27.70;;;17.07;;
37453;SDS011;23315;52.078;4.756;2023-12-07T05:19:52;23.73;;;15.23;;
37453;SDS011;23315;52.078;4.756;2023-12-07T05:22:18;27.97;;;16.27;;
37453;SDS011;23315;52.078;4.756;2023-12-07T05:24:43;24.90;;;16.17;;
37453;SDS011;23315;52.078;4.756;2023-12-07T05:27:08;25.60;;;15.30;;
37453;SDS011;23315;52.078;4.756;2023-12-07T05:29:34;24.03;;;15.67;;
37453;SDS011;23315;52.078;4.756;2023-12-07T05:31:59;27.53;;;16.57;;
37453;SDS011;23315;52.078;4.756;2023-12-07T05:34:24;28.23;;;15.87;;
37453;SDS011;23315;52.078;4.756;2023-12-07T05:36:50;24.73;;;15.23;;
37453;SDS011;23315;52.078;4.756;2023-12-07T05:39:15;23.80;;;15.13;;
37453;SDS011;23315;52.078;4.756;2023-12-07T05:41:42;25.07;;;16.73;;
37453;SDS011;23315;52.078;4.756;2023-12-07T05:44:08;23.13;;;15.30;;
37453;SDS011;23315;52.078;4.756;2023-12-07T05:46:34;30.07;;;17.33;;
37453;SDS011;23315;52.078;4.756;2023-12-07T05:49:00;26.50;;;17.20;;
37453;SDS011;23315;52.078;4.756;2023-12-07T05:51:25;27.20;;;16.33;;
37453;SDS011;23315;52.078;4.756;2023-12-07T05:53:51;29.20;;;16.63;;
37453;SDS011;23315;52.078;4.756;2023-12-07T05:56:18;26.33;;;16.40;;
37453;SDS011;23315;52.078;4.756;2023-12-07T05:58:46;25.20;;;16.70;;
37453;SDS011;23315;52.078;4.756;2023-12-07T06:01:16;25.13;;;16.00;;
37453;SDS011;23315;52.078;4.756;2023-12-07T06:03:42;28.27;;;17.43;;
37453;SDS011;23315;52.078;4.756;2023-12-07T06:06:07;31.80;;;17.80;;
37453;SDS011;23315;52.078;4.756;2023-12-07T06:08:35;33.47;;;18.90;;
37453;SDS011;23315;52.078;4.756;2023-12-07T06:11:00;31.93;;;19.97;;
37453;SDS011;23315;52.078;4.756;2023-12-07T06:13:26;27.07;;;17.17;;
37453;SDS011;23315;52.078;4.756;2023-12-07T06:15:52;30.77;;;18.20;;
37453;SDS011;23315;52.078;4.756;2023-12-07T06:18:17;27.90;;;17.83;;
37453;SDS011;23315;52.078;4.756;2023-12-07T06:20:42;29.73;;;19.00;;
37453;SDS011;23315;52.078;4.756;2023-12-07T06:23:08;31.30;;;19.07;;
37453;SDS011;23315;52.078;4.756;2023-12-07T06:25:37;31.80;;;19.20;;
37453;SDS011;23315;52.078;4.756;2023-12-07T06:28:05;30.60;;;17.60;;
37453;SDS011;23315;52.078;4.756;2023-12-07T06:30:32;33.57;;;21.10;;
37453;SDS011;23315;52.078;4.756;2023-12-07T06:32:57;30.37;;;18.47;;
37453;SDS011;23315;52.078;4.756;2023-12-07T06:35:23;32.60;;;17.70;;
37453;SDS011;23315;52.078;4.756;2023-12-07T06:37:48;31.50;;;19.83;;
37453;SDS011;23315;52.078;4.756;2023-12-07T06:40:13;31.90;;;19.47;;
37453;SDS011;23315;52.078;4.756;2023-12-07T06:42:39;31.97;;;20.93;;
37453;SDS011;23315;52.078;4.756;2023-12-07T06:45:04;35.60;;;20.23;;
37453;SDS011;23315;52.078;4.756;2023-12-07T06:47:30;32.40;;;19.13;;
37453;SDS011;23315;52.078;4.756;2023-12-07T06:49:56;32.70;;;20.73;;
37453;SDS011;23315;52.078;4.756;2023-12-07T06:52:21;41.77;;;21.20;;
37453;SDS011;23315;52.078;4.756;2023-12-07T06:54:47;34.50;;;20.10;;
37453;SDS011;23315;52.078;4.756;2023-12-07T06:57:12;34.97;;;20.70;;
37453;SDS011;23315;52.078;4.756;2023-12-07T06:59:38;35.57;;;20.43;;
37453;SDS011;23315;52.078;4.756;2023-12-07T07:02:03;31.97;;;20.77;;
37453;SDS011;23315;52.078;4.756;2023-12-07T07:04:28;37.17;;;20.57;;
37453;SDS011;23315;52.078;4.756;2023-12-07T07:06:54;32.63;;;20.83;;
37453;SDS011;23315;52.078;4.756;2023-12-07T07:09:20;32.20;;;20.87;;
37453;SDS011;23315;52.078;4.756;2023-12-07T07:11:48;35.13;;;19.63;;
37453;SDS011;23315;52.078;4.756;2023-12-07T07:14:14;30.37;;;19.43;;
37453;SDS011;23315;52.078;4.756;2023-12-07T07:16:39;27.80;;;19.23;;
37453;SDS011;23315;52.078;4.756;2023-12-07T07:19:04;32.10;;;19.67;;
37453;SDS011;23315;52.078;4.756;2023-12-07T07:21:30;32.87;;;20.03;;
37453;SDS011;23315;52.078;4.756;2023-12-07T07:23:56;31.83;;;19.30;;
37453;SDS011;23315;52.078;4.756;2023-12-07T07:26:22;31.83;;;17.83;;
37453;SDS011;23315;52.078;4.756;2023-12-07T07:28:47;33.63;;;20.83;;
37453;SDS011;23315;52.078;4.756;2023-12-07T07:31:12;37.83;;;22.73;;
37453;SDS011;23315;52.078;4.756;2023-12-07T07:33:38;35.73;;;21.07;;
37453;SDS011;23315;52.078;4.756;2023-12-07T07:36:03;32.07;;;21.03;;
37453;SDS011;23315;52.078;4.756;2023-12-07T07:38:29;31.53;;;19.40;;
37453;SDS011;23315;52.078;4.756;2023-12-07T07:40:54;35.37;;;20.30;;
37453;SDS011;23315;52.078;4.756;2023-12-07T07:43:20;35.17;;;21.53;;
37453;SDS011;23315;52.078;4.756;2023-12-07T07:45:45;29.97;;;20.00;;
37453;SDS011;23315;52.078;4.756;2023-12-07T07:48:11;33.90;;;21.20;;
37453;SDS011;23315;52.078;4.756;2023-12-07T07:50:37;34.90;;;21.27;;
37453;SDS011;23315;52.078;4.756;2023-12-07T07:53:02;30.97;;;20.00;;
37453;SDS011;23315;52.078;4.756;2023-12-07T07:55:28;35.10;;;20.17;;
37453;SDS011;23315;52.078;4.756;2023-12-07T07:57:54;33.40;;;21.37;;
37453;SDS011;23315;52.078;4.756;2023-12-07T08:00:19;37.33;;;21.03;;
37453;SDS011;23315;52.078;4.756;2023-12-07T08:02:45;44.03;;;23.60;;
37453;SDS011;23315;52.078;4.756;2023-12-07T08:05:11;34.97;;;21.30;;
37453;SDS011;23315;52.078;4.756;2023-12-07T08:07:36;44.40;;;25.33;;
37453;SDS011;23315;52.078;4.756;2023-12-07T08:10:01;34.60;;;21.43;;
37453;SDS011;23315;52.078;4.756;2023-12-07T08:12:28;39.87;;;24.63;;
37453;SDS011;23315;52.078;4.756;2023-12-07T08:14:54;40.47;;;24.07;;
37453;SDS011;23315;52.078;4.756;2023-12-07T08:17:19;40.60;;;23.20;;
37453;SDS011;23315;52.078;4.756;2023-12-07T08:19:44;40.87;;;24.67;;
37453;SDS011;23315;52.078;4.756;2023-12-07T08:22:10;40.07;;;24.47;;
37453;SDS011;23315;52.078;4.756;2023-12-07T08:24:35;51.07;;;24.93;;
37453;SDS011;23315;52.078;4.756;2023-12-07T08:27:02;45.37;;;26.97;;
37453;SDS011;23315;52.078;4.756;2023-12-07T08:29:28;44.47;;;25.50;;
37453;SDS011;23315;52.078;4.756;2023-12-07T08:31:53;46.67;;;27.33;;
37453;SDS011;23315;52.078;4.756;2023-12-07T08:34:19;45.77;;;26.73;;
37453;SDS011;23315;52.078;4.756;2023-12-07T08:36:44;54.60;;;26.97;;
37453;SDS011;23315;52.078;4.756;2023-12-07T08:39:10;81.37;;;33.47;;
37453;SDS011;23315;52.078;4.756;2023-12-07T08:41:35;89.90;;;30.97;;
37453;SDS011;23315;52.078;4.756;2023-12-07T08:44:01;55.57;;;30.27;;
37453;SDS011;23315;52.078;4.756;2023-12-07T08:46:27;55.23;;;28.83;;
37453;SDS011;23315;52.078;4.756;2023-12-07T08:48:52;72.20;;;32.37;;
37453;SDS011;23315;52.078;4.756;2023-12-07T08:51:18;61.63;;;30.20;;
37453;SDS011;23315;52.078;4.756;2023-12-07T08:53:44;42.97;;;26.53;;
37453;SDS011;23315;52.078;4.756;2023-12-07T08:56:09;43.83;;;27.50;;
37453;SDS011;23315;52.078;4.756;2023-12-07T08:58:35;64.30;;;30.17;;
37453;SDS011;23315;52.078;4.756;2023-12-07T09:01:00;48.17;;;27.93;;
37453;SDS011;23315;52.078;4.756;2023-12-07T09:03:26;59.63;;;28.97;;
37453;SDS011;23315;52.078;4.756;2023-12-07T09:05:52;45.80;;;26.80;;
37453;SDS011;23315;52.078;4.756;2023-12-07T09:08:18;57.27;;;29.63;;
37453;SDS011;23315;52.078;4.756;2023-12-07T09:10:44;49.37;;;27.33;;
37453;SDS011;23315;52.078;4.756;2023-12-07T09:13:09;48.63;;;27.47;;
37453;SDS011;23315;52.078;4.756;2023-12-07T09:15:34;55.13;;;28.73;;
37453;SDS011;23315;52.078;4.756;2023-12-07T09:18:02;57.03;;;28.30;;
37453;SDS011;23315;52.078;4.756;2023-12-07T09:20:28;50.93;;;26.77;;
37453;SDS011;23315;52.078;4.756;2023-12-07T09:22:53;74.87;;;33.17;;
37453;SDS011;23315;52.078;4.756;2023-12-07T09:25:20;50.57;;;30.23;;
37453;SDS011;23315;52.078;4.756;2023-12-07T09:27:46;58.60;;;30.87;;
37453;SDS011;23315;52.078;4.756;2023-12-07T09:30:12;71.90;;;31.00;;
37453;SDS011;23315;52.078;4.756;2023-12-07T09:32:41;57.33;;;30.57;;
37453;SDS011;23315;52.078;4.756;2023-12-07T09:35:07;78.70;;;31.83;;
37453;SDS011;23315;52.078;4.756;2023-12-07T09:37:39;82.37;;;33.27;;
37453;SDS011;23315;52.078;4.756;2023-12-07T09:40:05;82.97;;;33.03;;
37453;SDS011;23315;52.078;4.756;2023-12-07T09:42:32;78.10;;;32.00;;
37453;SDS011;23315;52.078;4.756;2023-12-07T09:44:58;151.90;;;39.73;;
37453;SDS011;23315;52.078;4.756;2023-12-07T09:47:24;77.83;;;33.03;;
37453;SDS011;23315;52.078;4.756;2023-12-07T09:49:52;68.33;;;31.83;;
37453;SDS011;23315;52.078;4.756;2023-12-07T09:52:17;64.30;;;31.63;;
37453;SDS011;23315;52.078;4.756;2023-12-07T09:54:44;90.60;;;35.60;;
37453;SDS011;23315;52.078;4.756;2023-12-07T09:57:10;69.57;;;31.57;;
37453;SDS011;23315;52.078;4.756;2023-12-07T09:59:35;60.80;;;33.37;;
37453;SDS011;23315;52.078;4.756;2023-12-07T10:02:01;58.53;;;31.13;;
37453;SDS011;23315;52.078;4.756;2023-12-07T10:04:27;67.43;;;34.53;;
37453;SDS011;23315;52.078;4.756;2023-12-07T10:06:52;78.47;;;34.07;;
37453;SDS011;23315;52.078;4.756;2023-12-07T10:09:19;73.30;;;33.57;;
37453;SDS011;23315;52.078;4.756;2023-12-07T10:11:46;69.77;;;34.67;;
37453;SDS011;23315;52.078;4.756;2023-12-07T10:14:11;72.47;;;34.73;;
37453;SDS011;23315;52.078;4.756;2023-12-07T10:16:36;73.43;;;32.80;;
37453;SDS011;23315;52.078;4.756;2023-12-07T10:19:12;88.70;;;36.83;;
37453;SDS011;23315;52.078;4.756;2023-12-07T10:21:39;66.50;;;35.10;;
37453;SDS011;23315;52.078;4.756;2023-12-07T10:24:04;94.03;;;35.93;;
37453;SDS011;23315;52.078;4.756;2023-12-07T10:26:30;74.30;;;33.60;;
37453;SDS011;23315;52.078;4.756;2023-12-07T10:28:55;79.50;;;34.50;;
37453;SDS011;23315;52.078;4.756;2023-12-07T10:31:21;86.53;;;33.00;;
37453;SDS011;23315;52.078;4.756;2023-12-07T10:33:50;92.80;;;32.17;;
37453;SDS011;23315;52.078;4.756;2023-12-07T10:36:15;76.80;;;32.80;;
37453;SDS011;23315;52.078;4.756;2023-12-07T10:38:40;63.03;;;30.00;;
37453;SDS011;23315;52.078;4.756;2023-12-07T10:41:11;59.80;;;28.03;;
37453;SDS011;23315;52.078;4.756;2023-12-07T10:43:37;71.13;;;28.87;;
37453;SDS011;23315;52.078;4.756;2023-12-07T10:46:07;65.10;;;28.40;;
37453;SDS011;23315;52.078;4.756;2023-12-07T10:48:34;64.70;;;29.07;;
37453;SDS011;23315;52.078;4.756;2023-12-07T10:51:00;57.03;;;26.83;;
37453;SDS011;23315;52.078;4.756;2023-12-07T10:53:29;51.10;;;26.37;;
37453;SDS011;23315;52.078;4.756;2023-12-07T10:56:01;56.23;;;27.17;;
37453;SDS011;23315;52.078;4.756;2023-12-07T10:58:28;56.53;;;25.93;;
37453;SDS011;23315;52.078;4.756;2023-12-07T11:00:53;53.97;;;27.07;;
37453;SDS011;23315;52.078;4.756;2023-12-07T11:03:19;63.53;;;28.47;;
37453;SDS011;23315;52.078;4.756;2023-12-07T11:05:46;60.43;;;29.03;;
37453;SDS011;23315;52.078;4.756;2023-12-07T11:08:21;56.27;;;28.20;;
37453;SDS011;23315;52.078;4.756;2023-12-07T11:13:33;60.23;;;30.50;;
37453;SDS011;23315;52.078;4.756;2023-12-07T11:16:01;62.43;;;30.87;;
37453;SDS011;23315;52.078;4.756;2023-12-07T11:18:28;56.07;;;28.00;;
37453;SDS011;23315;52.078;4.756;2023-12-07T11:20:54;44.70;;;25.07;;
37453;SDS011;23315;52.078;4.756;2023-12-07T11:23:20;56.87;;;26.40;;
37453;SDS011;23315;52.078;4.756;2023-12-07T11:25:49;44.23;;;24.57;;
37453;SDS011;23315;52.078;4.756;2023-12-07T11:28:18;42.87;;;23.73;;
37453;SDS011;23315;52.078;4.756;2023-12-07T11:31:00;45.17;;;21.40;;
37453;SDS011;23315;52.078;4.756;2023-12-07T11:33:26;46.13;;;22.20;;
37453;SDS011;23315;52.078;4.756;2023-12-07T11:38:29;44.47;;;20.43;;
37453;SDS011;23315;52.078;4.756;2023-12-07T11:40:55;42.67;;;21.80;;
37453;SDS011;23315;52.078;4.756;2023-12-07T11:43:36;39.20;;;20.13;;
37453;SDS011;23315;52.078;4.756;2023-12-07T11:46:08;37.23;;;17.87;;
37453;SDS011;23315;52.078;4.756;2023-12-07T11:48:34;34.13;;;19.10;;
37453;SDS011;23315;52.078;4.756;2023-12-07T11:51:00;33.00;;;18.27;;
37453;SDS011;23315;52.078;4.756;2023-12-07T11:53:31;35.33;;;19.27;;
37453;SDS011;23315;52.078;4.756;2023-12-07T11:55:58;33.83;;;18.37;;
37453;SDS011;23315;52.078;4.756;2023-12-07T11:58:27;40.90;;;19.03;;
37453;SDS011;23315;52.078;4.756;2023-12-07T12:00:53;38.27;;;19.37;;
37453;SDS011;23315;52.078;4.756;2023-12-07T12:03:19;43.87;;;20.70;;
37453;SDS011;23315;52.078;4.756;2023-12-07T12:05:45;45.40;;;22.73;;
37453;SDS011;23315;52.078;4.756;2023-12-07T12:08:11;36.87;;;18.77;;
37453;SDS011;23315;52.078;4.756;2023-12-07T12:10:36;33.10;;;17.60;;
37453;SDS011;23315;52.078;4.756;2023-12-07T12:13:03;31.10;;;18.00;;
37453;SDS011;23315;52.078;4.756;2023-12-07T12:15:29;37.93;;;19.40;;
37453;SDS011;23315;52.078;4.756;2023-12-07T12:17:58;41.07;;;19.47;;
37453;SDS011;23315;52.078;4.756;2023-12-07T12:20:25;33.43;;;18.13;;
37453;SDS011;23315;52.078;4.756;2023-12-07T12:22:51;31.20;;;17.77;;
37453;SDS011;23315;52.078;4.756;2023-12-07T12:25:20;38.27;;;19.10;;
37453;SDS011;23315;52.078;4.756;2023-12-07T12:27:47;33.10;;;18.57;;
37453;SDS011;23315;52.078;4.756;2023-12-07T12:30:13;35.67;;;18.43;;
37453;SDS011;23315;52.078;4.756;2023-12-07T12:32:42;36.07;;;18.77;;
37453;SDS011;23315;52.078;4.756;2023-12-07T12:35:10;36.20;;;18.00;;
37453;SDS011;23315;52.078;4.756;2023-12-07T12:37:38;32.67;;;18.33;;
37453;SDS011;23315;52.078;4.756;2023-12-07T12:40:07;38.87;;;18.87;;
37453;SDS011;23315;52.078;4.756;2023-12-07T12:42:33;37.83;;;19.10;;
37453;SDS011;23315;52.078;4.756;2023-12-07T12:44:58;30.87;;;16.10;;
37453;SDS011;23315;52.078;4.756;2023-12-07T12:47:24;40.47;;;18.47;;
37453;SDS011;23315;52.078;4.756;2023-12-07T12:49:50;32.17;;;16.10;;
37453;SDS011;23315;52.078;4.756;2023-12-07T12:52:15;42.97;;;18.13;;
37453;SDS011;23315;52.078;4.756;2023-12-07T12:54:44;39.97;;;16.97;;
37453;SDS011;23315;52.078;4.756;2023-12-07T12:57:09;30.87;;;16.77;;
37453;SDS011;23315;52.078;4.756;2023-12-07T12:59:35;34.73;;;15.97;;
37453;SDS011;23315;52.078;4.756;2023-12-07T13:02:00;33.07;;;15.07;;
37453;SDS011;23315;52.078;4.756;2023-12-07T13:04:29;27.83;;;14.77;;
37453;SDS011;23315;52.078;4.756;2023-12-07T13:06:55;30.40;;;14.17;;
37453;SDS011;23315;52.078;4.756;2023-12-07T13:09:20;34.43;;;15.07;;
37453;SDS011;23315;52.078;4.756;2023-12-07T13:11:46;26.50;;;14.27;;
37453;SDS011;23315;52.078;4.756;2023-12-07T13:14:12;38.00;;;15.37;;
37453;SDS011;23315;52.078;4.756;2023-12-07T13:16:37;31.77;;;14.47;;
37453;SDS011;23315;52.078;4.756;2023-12-07T13:19:03;22.97;;;12.53;;
37453;SDS011;23315;52.078;4.756;2023-12-07T13:21:29;30.33;;;15.43;;
37453;SDS011;23315;52.078;4.756;2023-12-07T13:23:54;27.63;;;13.43;;
37453;SDS011;23315;52.078;4.756;2023-12-07T13:26:20;30.07;;;13.97;;
37453;SDS011;23315;52.078;4.756;2023-12-07T13:28:48;33.30;;;16.23;;
37453;SDS011;23315;52.078;4.756;2023-12-07T13:31:14;25.17;;;14.13;;
37453;SDS011;23315;52.078;4.756;2023-12-07T13:33:40;28.20;;;14.93;;
37453;SDS011;23315;52.078;4.756;2023-12-07T13:36:07;27.17;;;14.73;;
37453;SDS011;23315;52.078;4.756;2023-12-07T13:38:33;29.63;;;15.07;;
37453;SDS011;23315;52.078;4.756;2023-12-07T13:41:00;30.90;;;15.53;;
37453;SDS011;23315;52.078;4.756;2023-12-07T13:43:27;29.83;;;16.07;;
37453;SDS011;23315;52.078;4.756;2023-12-07T13:45:55;28.83;;;14.97;;
37453;SDS011;23315;52.078;4.756;2023-12-07T13:48:20;30.40;;;15.87;;
37453;SDS011;23315;52.078;4.756;2023-12-07T13:50:46;34.60;;;16.93;;
37453;SDS011;23315;52.078;4.756;2023-12-07T13:53:15;37.00;;;17.57;;
37453;SDS011;23315;52.078;4.756;2023-12-07T13:55:41;37.97;;;17.70;;
37453;SDS011;23315;52.078;4.756;2023-12-07T13:58:11;40.60;;;16.53;;
37453;SDS011;23315;52.078;4.756;2023-12-07T14:00:37;39.90;;;17.23;;
37453;SDS011;23315;52.078;4.756;2023-12-07T14:03:03;32.43;;;16.40;;
37453;SDS011;23315;52.078;4.756;2023-12-07T14:05:29;35.77;;;18.17;;
37453;SDS011;23315;52.078;4.756;2023-12-07T14:07:55;35.77;;;16.97;;
37453;SDS011;23315;52.078;4.756;2023-12-07T14:10:22;35.67;;;18.00;;
37453;SDS011;23315;52.078;4.756;2023-12-07T14:12:48;33.13;;;16.37;;
37453;SDS011;23315;52.078;4.756;2023-12-07T14:15:13;33.20;;;17.93;;
37453;SDS011;23315;52.078;4.756;2023-12-07T14:17:39;33.37;;;16.90;;
37453;SDS011;23315;52.078;4.756;2023-12-07T14:20:05;41.80;;;17.97;;
37453;SDS011;23315;52.078;4.756;2023-12-07T14:22:34;37.17;;;17.73;;